createdAt,value
2017-06-17T00:00:22.985Z,76.90
2017-06-17T00:02:51.135Z,76.90
2017-06-17T00:05:19.310Z,77.00
2017-06-17T00:07:47.472Z,76.90
2017-06-17T00:10:16.382Z,76.90
2017-06-17T00:12:44.576Z,76.90
2017-06-17T00:15:12.725Z,76.20
2017-06-17T00:17:40.889Z,76.30
2017-06-17T00:20:09.841Z,76.60
2017-06-17T00:22:38.022Z,76.50
2017-06-17T00:25:06.192Z,76.60
2017-06-17T00:27:34.364Z,76.90
2017-06-17T00:30:02.540Z,77.50
2017-06-17T00:32:30.709Z,77.50
2017-06-17T00:34:58.882Z,77.90
2017-06-17T00:37:27.031Z,77.70
2017-06-17T00:39:55.174Z,77.40
2017-06-17T00:42:24.139Z,78.30
2017-06-17T00:44:52.764Z,78.30
2017-06-17T00:47:20.914Z,78.40
2017-06-17T00:49:49.854Z,78.40
2017-06-17T00:52:18.000Z,78.20
2017-06-17T00:54:46.150Z,78.50
2017-06-17T00:57:15.090Z,79.10
2017-06-17T00:59:43.256Z,79.00
2017-06-17T01:02:11.405Z,79.10
2017-06-17T01:04:40.350Z,78.90
2017-06-17T01:07:08.515Z,78.90
2017-06-17T01:09:36.674Z,78.50
2017-06-17T01:12:04.869Z,78.10
2017-06-17T01:14:33.038Z,78.20
2017-06-17T01:17:01.208Z,78.70
2017-06-17T01:19:29.416Z,79.10
2017-06-17T01:21:57.590Z,79.20
2017-06-17T01:24:25.740Z,78.70
2017-06-17T01:26:53.949Z,78.80
2017-06-17T01:29:22.089Z,78.80
2017-06-17T01:31:50.233Z,78.80
2017-06-17T01:34:19.197Z,79.20
2017-06-17T01:36:47.365Z,79.10
2017-06-17T01:39:15.530Z,79.20
2017-06-17T01:41:43.707Z,79.50
2017-06-17T01:44:11.849Z,79.10
2017-06-17T01:46:40.019Z,79.60
2017-06-17T01:49:08.212Z,79.60
2017-06-17T01:51:36.366Z,79.70
2017-06-17T01:54:04.514Z,79.60
2017-06-17T01:56:32.713Z,79.30
2017-06-17T01:59:00.867Z,79.00
2017-06-17T02:01:29.034Z,78.90
2017-06-17T02:03:57.234Z,78.80
2017-06-17T02:06:25.389Z,79.50
2017-06-17T02:08:54.320Z,80.10
2017-06-17T02:11:22.522Z,80.00
2017-06-17T02:13:50.685Z,80.00
2017-06-17T02:16:18.849Z,80.00
2017-06-17T02:18:47.360Z,80.00
2017-06-17T02:21:21.126Z,79.40
2017-06-17T02:23:49.330Z,79.10
2017-06-17T02:26:17.478Z,79.40
2017-06-17T02:28:45.644Z,80.00
2017-06-17T02:31:13.847Z,79.80
2017-06-17T02:33:42.024Z,80.10
2017-06-17T02:36:10.174Z,80.20
2017-06-17T02:38:38.379Z,79.70
2017-06-17T02:41:06.542Z,80.10
2017-06-17T02:43:34.721Z,80.00
2017-06-17T02:46:02.917Z,79.70
2017-06-17T02:48:31.065Z,79.70
2017-06-17T02:50:59.217Z,79.50
2017-06-17T02:53:27.399Z,80.00
2017-06-17T02:55:55.545Z,80.30
2017-06-17T02:58:24.476Z,80.10
2017-06-17T03:00:52.657Z,80.10
2017-06-17T03:03:20.821Z,80.60
2017-06-17T03:05:48.965Z,80.10
2017-06-17T03:08:17.926Z,80.10
2017-06-17T03:10:46.078Z,80.00
2017-06-17T03:13:14.218Z,80.70
2017-06-17T03:15:42.424Z,80.10
2017-06-17T03:18:10.565Z,80.30
2017-06-17T03:20:38.737Z,80.60
2017-06-17T03:23:06.918Z,81.00
2017-06-17T03:25:35.070Z,81.00
2017-06-17T03:28:04.004Z,81.00
2017-06-17T03:30:32.180Z,81.00
2017-06-17T03:33:00.329Z,81.00
2017-06-17T03:35:28.477Z,81.30
2017-06-17T03:37:56.654Z,81.00
2017-06-17T03:40:25.588Z,80.10
2017-06-17T03:42:53.757Z,80.50
2017-06-17T03:45:21.945Z,80.70
2017-06-17T03:47:50.087Z,81.30
2017-06-17T03:50:19.018Z,81.30
2017-06-17T03:52:47.214Z,81.20
2017-06-17T03:55:15.386Z,80.80
2017-06-17T03:57:43.550Z,80.50
2017-06-17T04:00:11.744Z,80.60
2017-06-17T04:02:39.911Z,80.30
2017-06-17T04:05:08.080Z,80.80
2017-06-17T04:07:36.250Z,80.60
2017-06-17T04:10:04.424Z,80.30
2017-06-17T04:12:32.587Z,79.90
2017-06-17T04:15:00.784Z,80.40
2017-06-17T04:17:28.952Z,80.60
2017-06-17T04:19:57.119Z,80.50
2017-06-17T04:22:25.289Z,79.80
2017-06-17T04:24:53.448Z,79.40
2017-06-17T04:27:21.594Z,80.30
2017-06-17T04:29:50.555Z,79.10
2017-06-17T04:32:18.713Z,79.10
2017-06-17T04:34:46.881Z,79.00
2017-06-17T04:37:15.073Z,78.90
2017-06-17T04:39:43.240Z,78.70
2017-06-17T04:42:11.385Z,78.40
2017-06-17T04:44:39.602Z,77.90
2017-06-17T04:47:07.757Z,78.10
2017-06-17T04:49:35.918Z,77.60
2017-06-17T04:52:04.105Z,77.50
2017-06-17T04:54:32.255Z,76.60
2017-06-17T04:57:00.405Z,77.00
2017-06-17T04:59:29.368Z,77.00
2017-06-17T05:01:57.539Z,77.00
2017-06-17T05:04:25.692Z,76.70
2017-06-17T05:06:53.889Z,76.30
2017-06-17T05:09:22.045Z,76.10
2017-06-17T05:11:50.196Z,75.70
2017-06-17T05:14:18.392Z,74.80
2017-06-17T05:16:46.561Z,74.70
2017-06-17T05:19:14.978Z,74.50
2017-06-17T05:21:43.313Z,74.40
2017-06-17T05:24:11.476Z,73.70
2017-06-17T05:26:40.409Z,74.30
2017-06-17T05:29:08.606Z,74.30
2017-06-17T05:31:36.761Z,73.10
2017-06-17T05:34:04.927Z,72.80
2017-06-17T05:36:33.107Z,72.50
2017-06-17T05:39:01.280Z,72.30
2017-06-17T05:41:29.448Z,72.40
2017-06-17T05:43:57.613Z,72.20
2017-06-17T05:46:25.762Z,70.00
2017-06-17T05:48:54.672Z,69.70
2017-06-17T05:51:22.870Z,69.70
2017-06-17T05:53:51.033Z,69.50
2017-06-17T05:56:19.200Z,68.60
2017-06-17T05:58:47.396Z,68.10
2017-06-17T06:01:15.561Z,67.40
2017-06-17T06:03:43.736Z,66.90
2017-06-17T06:06:11.939Z,66.20
2017-06-17T06:08:40.104Z,66.00
2017-06-17T06:11:08.267Z,65.00
2017-06-17T06:13:36.456Z,66.00
2017-06-17T06:16:04.601Z,65.70
2017-06-17T06:18:32.765Z,65.10
2017-06-17T06:21:00.964Z,64.80
2017-06-17T06:23:29.116Z,64.60
2017-06-17T06:25:57.280Z,64.70
2017-06-17T06:28:25.449Z,64.50
2017-06-17T06:30:53.594Z,63.50
2017-06-17T06:33:22.506Z,60.80
2017-06-17T06:35:50.685Z,60.60
2017-06-17T06:38:18.825Z,60.70
2017-06-17T06:40:46.969Z,60.50
2017-06-17T06:43:15.160Z,59.60
2017-06-17T06:45:43.313Z,60.20
2017-06-17T06:48:11.454Z,60.20
2017-06-17T06:50:40.421Z,58.90
2017-06-17T06:53:08.584Z,58.90
2017-06-17T06:55:37.565Z,58.20
2017-06-17T06:58:05.745Z,58.80
2017-06-17T07:00:33.892Z,58.30
2017-06-17T07:03:02.067Z,57.50
2017-06-17T07:05:30.578Z,56.80
2017-06-17T07:07:58.745Z,57.50
2017-06-17T07:10:26.908Z,56.50
2017-06-17T07:12:55.097Z,56.30
2017-06-17T07:15:23.845Z,55.50
2017-06-17T07:17:52.005Z,55.50
2017-06-17T07:20:20.985Z,55.10
2017-06-17T07:22:49.129Z,55.00
2017-06-17T07:25:17.301Z,55.30
2017-06-17T07:27:45.518Z,54.40
2017-06-17T07:30:14.483Z,54.80
2017-06-17T07:32:42.632Z,54.70
2017-06-17T07:35:10.811Z,55.20
2017-06-17T07:37:38.985Z,54.30
2017-06-17T07:40:07.148Z,52.60
2017-06-17T07:42:35.321Z,51.10
2017-06-17T07:45:03.467Z,52.00
2017-06-17T07:47:32.396Z,51.90
2017-06-17T07:50:00.593Z,51.90
2017-06-17T07:52:28.757Z,50.70
2017-06-17T07:54:56.919Z,50.90
2017-06-17T07:57:25.109Z,49.70
2017-06-17T07:59:53.253Z,50.50
2017-06-17T08:02:21.417Z,50.40
2017-06-17T08:04:49.908Z,50.30
2017-06-17T08:07:18.057Z,50.00
2017-06-17T08:09:46.983Z,48.20
2017-06-17T08:12:15.175Z,48.20
2017-06-17T08:14:43.322Z,48.20
2017-06-17T08:17:11.473Z,46.00
2017-06-17T08:19:39.672Z,44.50
2017-06-17T08:22:07.821Z,41.40
2017-06-17T08:24:35.999Z,40.10
2017-06-17T08:27:04.255Z,40.40
2017-06-17T08:29:32.422Z,39.30
2017-06-17T08:32:00.566Z,39.70
2017-06-17T08:34:28.764Z,40.80
2017-06-17T08:36:56.919Z,41.20
2017-06-17T08:39:25.071Z,40.50
2017-06-17T08:41:53.247Z,36.20
2017-06-17T08:44:21.394Z,34.00
2017-06-17T08:46:49.541Z,32.20
2017-06-17T08:49:17.736Z,30.60
2017-06-17T08:51:45.882Z,29.90
2017-06-17T08:54:14.032Z,30.00
2017-06-17T08:56:42.230Z,30.40
2017-06-17T08:59:10.404Z,31.90
2017-06-17T09:01:38.555Z,31.10
2017-06-17T09:04:06.737Z,29.00
2017-06-17T09:06:34.905Z,29.50
2017-06-17T09:09:03.069Z,28.80
2017-06-17T09:11:31.274Z,27.80
2017-06-17T09:13:59.438Z,26.40
2017-06-17T09:16:27.582Z,26.80
2017-06-17T09:18:55.777Z,29.10
2017-06-17T09:21:23.925Z,31.70
2017-06-17T09:23:52.069Z,31.60
2017-06-17T09:26:20.240Z,29.90
2017-06-17T09:28:48.401Z,28.80
2017-06-17T09:31:16.553Z,29.50
2017-06-17T09:33:44.728Z,31.60
2017-06-17T09:36:12.879Z,32.90
2017-06-17T09:38:41.030Z,31.70
2017-06-17T09:41:09.982Z,27.70
2017-06-17T09:43:38.148Z,27.70
2017-06-17T09:46:06.292Z,28.10
2017-06-17T09:48:34.476Z,27.40
2017-06-17T09:51:02.637Z,27.40
2017-06-17T09:53:30.790Z,29.90
2017-06-17T09:55:58.975Z,31.60
2017-06-17T09:58:27.904Z,30.00
2017-06-17T10:00:56.047Z,30.00
2017-06-17T10:03:24.991Z,26.70
2017-06-17T10:05:53.154Z,26.60
2017-06-17T10:08:21.316Z,25.20
2017-06-17T10:10:49.599Z,25.40
2017-06-17T10:13:17.778Z,25.70
2017-06-17T10:15:45.975Z,26.10
2017-06-17T10:18:14.144Z,27.50
2017-06-17T10:20:47.886Z,27.80
2017-06-17T10:23:16.117Z,27.10
2017-06-17T10:25:44.282Z,27.10
2017-06-17T10:28:12.428Z,29.50
2017-06-17T10:30:40.603Z,32.20
2017-06-17T10:33:08.785Z,31.90
2017-06-17T10:35:36.948Z,29.30
2017-06-17T10:38:05.128Z,28.70
2017-06-17T10:40:38.389Z,27.60
2017-06-17T10:43:06.571Z,27.30
2017-06-17T10:45:35.517Z,27.40
2017-06-17T10:48:03.725Z,26.90
2017-06-17T10:50:31.895Z,27.30
2017-06-17T10:53:00.065Z,26.40
2017-06-17T10:55:28.228Z,25.80
2017-06-17T10:57:56.419Z,26.60
2017-06-17T11:00:24.566Z,28.80
2017-06-17T11:02:52.725Z,28.70
2017-06-17T11:05:20.898Z,28.40
2017-06-17T11:07:49.042Z,27.90
2017-06-17T11:10:17.959Z,30.00
2017-06-17T11:12:46.156Z,30.00
2017-06-17T11:15:14.313Z,31.00
2017-06-17T11:17:42.464Z,30.00
2017-06-17T11:20:10.650Z,29.30
2017-06-17T11:22:38.794Z,29.20
2017-06-17T11:25:07.724Z,33.60
2017-06-17T11:27:35.906Z,32.90
2017-06-17T11:30:04.047Z,34.60
2017-06-17T11:32:32.194Z,35.20
2017-06-17T11:35:00.382Z,36.50
2017-06-17T11:37:28.533Z,37.80
2017-06-17T11:39:56.706Z,40.50
2017-06-17T11:42:24.889Z,38.20
2017-06-17T11:44:53.036Z,38.90
2017-06-17T11:47:21.207Z,39.10
2017-06-17T11:49:49.416Z,39.00
2017-06-17T11:52:17.595Z,41.20
2017-06-17T11:54:45.764Z,39.80
2017-06-17T11:57:13.945Z,39.00
2017-06-17T11:59:42.116Z,39.50
2017-06-17T12:02:10.298Z,40.00
2017-06-17T12:04:39.256Z,39.00
2017-06-17T12:07:07.405Z,39.50
2017-06-17T12:09:35.576Z,39.80
2017-06-17T12:12:03.758Z,39.80
2017-06-17T12:14:31.917Z,39.90
2017-06-17T12:17:00.085Z,41.10
2017-06-17T12:19:28.263Z,39.90
2017-06-17T12:21:56.431Z,40.70
2017-06-17T12:24:25.372Z,42.10
2017-06-17T12:26:53.563Z,42.00
2017-06-17T12:29:21.725Z,41.70
2017-06-17T12:31:49.869Z,41.20
2017-06-17T12:34:18.064Z,41.80
2017-06-17T12:36:46.215Z,41.30
2017-06-17T12:39:14.387Z,41.30
2017-06-17T12:41:42.566Z,41.50
2017-06-17T12:44:10.725Z,42.50
2017-06-17T12:46:38.883Z,43.00
2017-06-17T12:49:07.838Z,42.50
2017-06-17T12:51:35.985Z,42.40
2017-06-17T12:54:04.161Z,43.40
2017-06-17T12:56:32.345Z,43.60
2017-06-17T12:59:00.519Z,42.30
2017-06-17T13:01:28.665Z,42.50
2017-06-17T13:03:56.845Z,42.10
2017-06-17T13:06:25.013Z,43.70
2017-06-17T13:08:53.157Z,43.40
2017-06-17T13:11:21.354Z,44.20
2017-06-17T13:13:50.267Z,43.80
2017-06-17T13:16:18.440Z,43.80
2017-06-17T13:18:46.649Z,42.90
2017-06-17T13:21:14.844Z,45.20
2017-06-17T13:23:43.022Z,43.50
2017-06-17T13:26:11.230Z,43.50
2017-06-17T13:28:39.400Z,43.90
2017-06-17T13:31:07.581Z,44.20
2017-06-17T13:33:35.762Z,45.00
2017-06-17T13:36:03.907Z,44.30
2017-06-17T13:38:32.829Z,44.90
2017-06-17T13:41:01.010Z,44.50
2017-06-17T13:43:29.157Z,45.20
2017-06-17T13:45:57.302Z,44.50
2017-06-17T13:48:25.494Z,44.60
2017-06-17T13:50:54.427Z,44.80
2017-06-17T13:53:22.574Z,44.20
2017-06-17T13:55:51.518Z,42.60
2017-06-17T13:58:19.685Z,42.60
2017-06-17T14:00:47.860Z,42.80
2017-06-17T14:03:16.038Z,44.00
2017-06-17T14:05:44.208Z,43.50
2017-06-17T14:08:12.384Z,44.10
2017-06-17T14:10:40.562Z,42.90
2017-06-17T14:13:08.735Z,42.60
2017-06-17T14:15:36.908Z,42.30
2017-06-17T14:18:05.097Z,43.20
2017-06-17T14:20:33.274Z,45.30
2017-06-17T14:23:01.440Z,44.00
2017-06-17T14:25:29.625Z,43.80
2017-06-17T14:27:57.785Z,44.70
2017-06-17T14:30:25.952Z,44.50
2017-06-17T14:32:54.144Z,45.50
2017-06-17T14:35:22.307Z,45.00
2017-06-17T14:37:50.474Z,45.90
2017-06-17T14:40:18.646Z,46.10
2017-06-17T14:42:46.823Z,45.40
2017-06-17T14:45:14.995Z,45.50
2017-06-17T14:47:43.547Z,45.50
2017-06-17T14:50:12.480Z,45.50
2017-06-17T14:52:40.638Z,45.50
2017-06-17T14:55:08.839Z,45.80
2017-06-17T14:57:37.025Z,46.80
2017-06-17T15:00:05.174Z,47.30
2017-06-17T15:02:33.349Z,48.60
2017-06-17T15:05:01.631Z,49.10
2017-06-17T15:07:31.004Z,50.10
2017-06-17T15:09:59.204Z,49.10
2017-06-17T15:12:27.355Z,49.20
2017-06-17T15:14:55.531Z,49.90
2017-06-17T15:17:24.532Z,50.60
2017-06-17T15:19:52.689Z,50.60
2017-06-17T15:22:21.640Z,49.10
2017-06-17T15:24:49.815Z,49.10
2017-06-17T15:27:17.978Z,49.30
2017-06-17T15:29:46.159Z,50.20
2017-06-17T15:32:14.339Z,49.70
2017-06-17T15:34:42.495Z,50.10
2017-06-17T15:37:10.674Z,50.70
2017-06-17T15:39:38.882Z,49.90
2017-06-17T15:42:07.042Z,51.10
2017-06-17T15:44:35.994Z,49.30
2017-06-17T15:47:06.009Z,49.20
2017-06-17T15:49:34.208Z,49.20
2017-06-17T15:52:04.150Z,50.00
2017-06-17T15:54:37.724Z,49.40
2017-06-17T15:57:06.132Z,50.30
2017-06-17T15:59:34.330Z,49.80
2017-06-17T16:02:03.370Z,50.90
2017-06-17T16:04:31.618Z,50.50
2017-06-17T16:06:59.859Z,50.90
2017-06-17T16:09:28.091Z,51.70
2017-06-17T16:11:56.260Z,51.80
2017-06-17T16:14:24.518Z,51.70
2017-06-17T16:16:52.676Z,51.00
2017-06-17T16:19:20.894Z,51.50
2017-06-17T16:21:49.156Z,50.50
2017-06-17T16:24:17.307Z,50.30
2017-06-17T16:26:46.350Z,50.80
2017-06-17T16:29:14.536Z,51.40
2017-06-17T16:31:43.493Z,51.20
2017-06-17T16:34:11.642Z,51.10
2017-06-17T16:36:39.880Z,50.90
2017-06-17T16:39:09.481Z,50.70
2017-06-17T16:41:38.421Z,49.90
2017-06-17T16:44:07.430Z,49.90
2017-06-17T16:46:35.583Z,50.60
2017-06-17T16:49:03.750Z,51.90
2017-06-17T16:51:31.949Z,51.90
2017-06-17T16:54:00.310Z,53.30
2017-06-17T16:56:29.750Z,53.40
2017-06-17T16:58:57.928Z,53.30
2017-06-17T17:01:26.095Z,53.90
2017-06-17T17:03:54.233Z,54.90
2017-06-17T17:06:22.434Z,56.20
2017-06-17T17:08:50.628Z,56.20
2017-06-17T17:11:18.845Z,56.30
2017-06-17T17:13:47.040Z,56.70
2017-06-17T17:16:15.186Z,57.00
2017-06-17T17:18:44.097Z,58.10
2017-06-17T17:21:12.284Z,58.10
2017-06-17T17:23:40.444Z,58.70
2017-06-17T17:26:08.643Z,58.70
2017-06-17T17:28:36.858Z,59.10
2017-06-17T17:31:05.023Z,59.10
2017-06-17T17:33:33.172Z,59.60
2017-06-17T17:36:01.350Z,59.50
2017-06-17T17:38:29.616Z,59.40
2017-06-17T17:40:57.865Z,59.60
2017-06-17T17:43:26.061Z,59.60
2017-06-17T17:45:54.232Z,60.20
2017-06-17T17:48:22.405Z,60.00
2017-06-17T17:50:50.581Z,60.20
2017-06-17T17:53:18.876Z,60.50
2017-06-17T17:55:47.043Z,60.90
2017-06-17T17:58:15.222Z,60.90
2017-06-17T18:00:43.373Z,61.40
2017-06-17T18:03:11.527Z,61.60
2017-06-17T18:05:40.609Z,61.50
2017-06-17T18:08:08.772Z,61.50
2017-06-17T18:10:36.970Z,61.60
2017-06-17T18:13:05.959Z,61.50
2017-06-17T18:15:34.914Z,61.40
2017-06-17T18:18:03.082Z,61.20
2017-06-17T18:20:31.308Z,61.50
2017-06-17T18:23:00.236Z,61.60
2017-06-17T18:25:28.452Z,61.60
2017-06-17T18:27:56.626Z,62.10
2017-06-17T18:30:24.884Z,62.60
2017-06-17T18:32:53.082Z,62.70
2017-06-17T18:35:21.300Z,63.10
2017-06-17T18:37:50.228Z,65.00
2017-06-17T18:40:18.381Z,64.00
2017-06-17T18:42:46.644Z,64.20
2017-06-17T18:45:14.797Z,64.10
2017-06-17T18:47:43.718Z,63.60
2017-06-17T18:50:11.915Z,63.60
2017-06-17T18:52:40.088Z,63.70
2017-06-17T18:55:08.270Z,63.80
2017-06-17T18:57:36.465Z,63.40
2017-06-17T19:00:04.621Z,63.10
2017-06-17T19:02:32.787Z,63.40
2017-06-17T19:05:00.990Z,63.50
2017-06-17T19:07:29.173Z,64.00
2017-06-17T19:09:57.329Z,64.50
2017-06-17T19:12:25.554Z,64.70
2017-06-17T19:14:53.758Z,65.10
2017-06-17T19:17:21.932Z,65.10
2017-06-17T19:19:50.121Z,65.60
2017-06-17T19:22:18.264Z,66.30
2017-06-17T19:24:46.429Z,67.00
2017-06-17T19:27:14.626Z,67.70
2017-06-17T19:29:42.777Z,68.10
2017-06-17T19:32:10.940Z,68.60
2017-06-17T19:34:39.919Z,68.70
2017-06-17T19:37:08.854Z,69.20
2017-06-17T19:39:37.020Z,68.90
2017-06-17T19:42:05.216Z,69.00
2017-06-17T19:44:33.413Z,69.40
2017-06-17T19:47:01.580Z,69.40
2017-06-17T19:49:29.761Z,69.20
2017-06-17T19:51:57.955Z,69.30
2017-06-17T19:54:26.890Z,69.60
2017-06-17T19:56:55.074Z,69.40
2017-06-17T19:59:23.227Z,70.00
2017-06-17T20:01:51.373Z,70.60
2017-06-17T20:04:20.372Z,71.70
2017-06-17T20:06:49.315Z,71.60
2017-06-17T20:09:17.465Z,71.60
2017-06-17T20:11:45.664Z,71.70
2017-06-17T20:14:13.817Z,72.10
2017-06-17T20:16:41.961Z,72.50
2017-06-17T20:19:10.906Z,74.30
2017-06-17T20:21:44.514Z,73.40
2017-06-17T20:24:18.213Z,73.50
2017-06-17T20:26:46.369Z,73.60
2017-06-17T20:29:14.518Z,73.60
2017-06-17T20:31:43.466Z,73.80
2017-06-17T20:34:11.630Z,73.80
2017-06-17T20:36:39.782Z,73.70
2017-06-17T20:39:07.953Z,74.20
2017-06-17T20:41:36.099Z,74.70
2017-06-17T20:44:05.599Z,75.30
2017-06-17T20:46:33.822Z,75.30
2017-06-17T20:49:02.122Z,75.50
2017-06-17T20:51:30.530Z,75.70
2017-06-17T20:53:59.534Z,75.60
2017-06-17T20:56:27.975Z,75.50
2017-06-17T20:58:56.175Z,75.20
2017-06-17T21:01:24.393Z,75.10
2017-06-17T21:03:52.581Z,75.10
2017-06-17T21:06:20.895Z,74.80
2017-06-17T21:08:49.097Z,75.00
2017-06-17T21:11:17.252Z,75.30
2017-06-17T21:13:45.427Z,75.50
2017-06-17T21:16:13.610Z,75.80
2017-06-17T21:18:41.774Z,75.90
2017-06-17T21:21:09.941Z,75.90
2017-06-17T21:23:38.125Z,75.70
2017-06-17T21:26:06.365Z,75.60
2017-06-17T21:28:34.591Z,75.80
2017-06-17T21:31:02.787Z,75.80
2017-06-17T21:33:31.016Z,75.30
2017-06-17T21:35:59.272Z,74.90
2017-06-17T21:38:28.237Z,75.00
2017-06-17T21:40:56.724Z,75.00
2017-06-17T21:43:25.145Z,74.70
2017-06-17T21:45:53.500Z,75.00
2017-06-17T21:48:21.739Z,74.90
2017-06-17T21:50:49.900Z,74.80
2017-06-17T21:53:19.167Z,74.80
2017-06-17T21:55:48.315Z,74.60
2017-06-17T21:58:16.469Z,74.70
2017-06-17T22:00:45.435Z,73.90
2017-06-17T22:03:13.588Z,74.60
2017-06-17T22:05:41.761Z,74.40
2017-06-17T22:08:09.956Z,74.20
2017-06-17T22:10:38.120Z,74.10
2017-06-17T22:13:06.280Z,73.80
2017-06-17T22:15:34.478Z,74.30
2017-06-17T22:18:02.622Z,74.90
2017-06-17T22:20:30.767Z,75.20
2017-06-17T22:22:58.941Z,76.10
2017-06-17T22:25:27.091Z,76.40
2017-06-17T22:27:55.250Z,76.50
2017-06-17T22:30:23.455Z,76.30
2017-06-17T22:32:51.607Z,75.80
2017-06-17T22:35:19.774Z,75.50
2017-06-17T22:37:47.969Z,76.20
2017-06-17T22:40:16.904Z,76.20
2017-06-17T22:42:45.069Z,75.50
2017-06-17T22:45:13.246Z,75.10
2017-06-17T22:47:41.411Z,75.30
2017-06-17T22:50:09.577Z,75.40
2017-06-17T22:52:37.750Z,75.50
2017-06-17T22:55:05.921Z,75.60
2017-06-17T22:57:34.852Z,75.80
2017-06-17T23:00:03.038Z,75.80
2017-06-17T23:02:31.198Z,75.70
2017-06-17T23:04:59.350Z,75.30
2017-06-17T23:07:27.546Z,74.90
2017-06-17T23:09:55.694Z,75.30
2017-06-17T23:12:23.860Z,76.00
2017-06-17T23:14:52.800Z,76.30
2017-06-17T23:17:20.946Z,76.20
2017-06-17T23:19:49.091Z,76.20
2017-06-17T23:22:18.029Z,76.00
2017-06-17T23:24:46.199Z,76.00
2017-06-17T23:27:14.360Z,75.90
2017-06-17T23:29:42.553Z,76.10
2017-06-17T23:32:10.702Z,76.40
2017-06-17T23:34:38.847Z,76.60
2017-06-17T23:37:07.025Z,76.90
2017-06-17T23:39:35.956Z,77.80
2017-06-17T23:42:04.117Z,76.90
2017-06-17T23:44:32.305Z,77.20
2017-06-17T23:47:00.472Z,77.00
2017-06-17T23:49:28.643Z,77.10
2017-06-17T23:51:56.825Z,77.00
2017-06-17T23:54:24.997Z,77.30
2017-06-17T23:56:53.170Z,77.60
2017-06-17T23:59:21.380Z,77.90
